sensor_id;sensor_type;location;lat;lon;timestamp;P1;durP1;ratioP1;P2;durP2;ratioP2
4089;SDS011;2059;48.538;12.146;2023-05-07T00:04:40;7.37;;;5.20;;
4089;SDS011;2059;48.538;12.146;2023-05-07T00:09:43;6.10;;;5.60;;
4089;SDS011;2059;48.538;12.146;2023-05-07T00:14:45;6.13;;;5.60;;
4089;SDS011;2059;48.538;12.146;2023-05-07T00:19:47;5.90;;;5.40;;
4089;SDS011;2059;48.538;12.146;2023-05-07T00:24:50;6.73;;;6.27;;
4089;SDS011;2059;48.538;12.146;2023-05-07T00:29:52;5.73;;;5.23;;
4089;SDS011;2059;48.538;12.146;2023-05-07T00:34:54;6.70;;;6.30;;
4089;SDS011;2059;48.538;12.146;2023-05-07T00:39:57;8.07;;;7.40;;
4089;SDS011;2059;48.538;12.146;2023-05-07T00:44:59;8.13;;;7.60;;
4089;SDS011;2059;48.538;12.146;2023-05-07T00:50:01;9.00;;;8.20;;
4089;SDS011;2059;48.538;12.146;2023-05-07T00:55:07;6.23;;;5.73;;
4089;SDS011;2059;48.538;12.146;2023-05-07T01:00:09;6.83;;;6.30;;
4089;SDS011;2059;48.538;12.146;2023-05-07T01:05:12;8.80;;;7.87;;
4089;SDS011;2059;48.538;12.146;2023-05-07T01:10:18;9.70;;;8.80;;
4089;SDS011;2059;48.538;12.146;2023-05-07T01:15:20;7.70;;;7.17;;
4089;SDS011;2059;48.538;12.146;2023-05-07T01:20:22;8.90;;;8.10;;
4089;SDS011;2059;48.538;12.146;2023-05-07T01:25:26;7.87;;;7.13;;
4089;SDS011;2059;48.538;12.146;2023-05-07T01:30:28;7.53;;;7.03;;
4089;SDS011;2059;48.538;12.146;2023-05-07T01:35:33;7.70;;;7.10;;
4089;SDS011;2059;48.538;12.146;2023-05-07T01:40:39;8.57;;;7.80;;
4089;SDS011;2059;48.538;12.146;2023-05-07T01:45:41;8.07;;;7.50;;
4089;SDS011;2059;48.538;12.146;2023-05-07T01:50:44;7.47;;;6.87;;
4089;SDS011;2059;48.538;12.146;2023-05-07T01:55:48;6.93;;;6.30;;
4089;SDS011;2059;48.538;12.146;2023-05-07T02:00:50;6.30;;;5.70;;
4089;SDS011;2059;48.538;12.146;2023-05-07T02:05:52;6.80;;;6.30;;
4089;SDS011;2059;48.538;12.146;2023-05-07T02:10:55;7.20;;;6.10;;
4089;SDS011;2059;48.538;12.146;2023-05-07T02:15:57;6.40;;;5.33;;
4089;SDS011;2059;48.538;12.146;2023-05-07T02:20:58;5.57;;;5.07;;
4089;SDS011;2059;48.538;12.146;2023-05-07T02:26:03;7.80;;;5.57;;
4089;SDS011;2059;48.538;12.146;2023-05-07T02:31:05;6.50;;;6.00;;
4089;SDS011;2059;48.538;12.146;2023-05-07T02:36:07;6.10;;;4.57;;
4089;SDS011;2059;48.538;12.146;2023-05-07T02:41:11;5.07;;;4.37;;
4089;SDS011;2059;48.538;12.146;2023-05-07T02:46:13;6.13;;;5.13;;
4089;SDS011;2059;48.538;12.146;2023-05-07T02:51:17;4.93;;;4.63;;
4089;SDS011;2059;48.538;12.146;2023-05-07T02:56:22;5.00;;;4.60;;
4089;SDS011;2059;48.538;12.146;2023-05-07T03:01:24;5.40;;;4.73;;
4089;SDS011;2059;48.538;12.146;2023-05-07T03:06:26;5.70;;;5.30;;
4089;SDS011;2059;48.538;12.146;2023-05-07T03:11:29;5.37;;;4.93;;
4089;SDS011;2059;48.538;12.146;2023-05-07T03:16:30;5.50;;;5.10;;
4089;SDS011;2059;48.538;12.146;2023-05-07T03:21:32;7.27;;;5.27;;
4089;SDS011;2059;48.538;12.146;2023-05-07T03:26:36;4.93;;;4.53;;
4089;SDS011;2059;48.538;12.146;2023-05-07T03:31:37;9.17;;;5.10;;
4089;SDS011;2059;48.538;12.146;2023-05-07T03:36:39;5.47;;;4.97;;
4089;SDS011;2059;48.538;12.146;2023-05-07T03:41:42;4.90;;;4.60;;
4089;SDS011;2059;48.538;12.146;2023-05-07T03:46:44;6.17;;;5.60;;
4089;SDS011;2059;48.538;12.146;2023-05-07T03:51:46;5.60;;;5.10;;
4089;SDS011;2059;48.538;12.146;2023-05-07T03:56:49;5.37;;;5.03;;
4089;SDS011;2059;48.538;12.146;2023-05-07T04:01:51;5.37;;;5.03;;
4089;SDS011;2059;48.538;12.146;2023-05-07T04:06:53;6.90;;;5.63;;
4089;SDS011;2059;48.538;12.146;2023-05-07T04:11:56;7.73;;;4.80;;
4089;SDS011;2059;48.538;12.146;2023-05-07T04:16:58;11.07;;;5.00;;
4089;SDS011;2059;48.538;12.146;2023-05-07T04:21:59;6.63;;;6.13;;
4089;SDS011;2059;48.538;12.146;2023-05-07T04:27:03;7.40;;;6.07;;
4089;SDS011;2059;48.538;12.146;2023-05-07T04:32:06;7.33;;;6.63;;
4089;SDS011;2059;48.538;12.146;2023-05-07T04:37:08;6.33;;;5.93;;
4089;SDS011;2059;48.538;12.146;2023-05-07T04:42:15;6.27;;;5.80;;
4089;SDS011;2059;48.538;12.146;2023-05-07T04:47:17;5.60;;;5.00;;
4089;SDS011;2059;48.538;12.146;2023-05-07T04:52:19;5.63;;;5.23;;
4089;SDS011;2059;48.538;12.146;2023-05-07T04:57:22;6.00;;;5.50;;
4089;SDS011;2059;48.538;12.146;2023-05-07T05:02:24;5.80;;;5.40;;
4089;SDS011;2059;48.538;12.146;2023-05-07T05:07:26;6.23;;;5.73;;
4089;SDS011;2059;48.538;12.146;2023-05-07T05:12:29;7.67;;;6.40;;
4089;SDS011;2059;48.538;12.146;2023-05-07T05:17:31;6.00;;;5.60;;
4089;SDS011;2059;48.538;12.146;2023-05-07T05:22:34;6.13;;;5.73;;
4089;SDS011;2059;48.538;12.146;2023-05-07T05:27:37;5.60;;;5.30;;
4089;SDS011;2059;48.538;12.146;2023-05-07T05:32:39;6.60;;;5.33;;
4089;SDS011;2059;48.538;12.146;2023-05-07T05:37:41;6.37;;;5.87;;
4089;SDS011;2059;48.538;12.146;2023-05-07T05:42:44;6.60;;;6.10;;
4089;SDS011;2059;48.538;12.146;2023-05-07T05:47:46;7.10;;;6.40;;
4089;SDS011;2059;48.538;12.146;2023-05-07T05:52:47;7.10;;;5.90;;
4089;SDS011;2059;48.538;12.146;2023-05-07T05:57:50;6.90;;;6.40;;
4089;SDS011;2059;48.538;12.146;2023-05-07T06:02:52;7.00;;;6.50;;
4089;SDS011;2059;48.538;12.146;2023-05-07T06:07:54;8.23;;;7.60;;
4089;SDS011;2059;48.538;12.146;2023-05-07T06:12:58;8.07;;;7.47;;
4089;SDS011;2059;48.538;12.146;2023-05-07T06:18:00;13.10;;;8.23;;
4089;SDS011;2059;48.538;12.146;2023-05-07T06:23:01;7.73;;;7.23;;
4089;SDS011;2059;48.538;12.146;2023-05-07T06:28:05;8.67;;;7.97;;
4089;SDS011;2059;48.538;12.146;2023-05-07T06:33:08;8.07;;;7.57;;
4089;SDS011;2059;48.538;12.146;2023-05-07T06:38:10;8.00;;;7.30;;
4089;SDS011;2059;48.538;12.146;2023-05-07T06:43:13;6.60;;;5.50;;
4089;SDS011;2059;48.538;12.146;2023-05-07T06:48:15;6.10;;;5.63;;
4089;SDS011;2059;48.538;12.146;2023-05-07T06:53:17;6.20;;;5.70;;
4089;SDS011;2059;48.538;12.146;2023-05-07T06:58:20;5.67;;;5.07;;
4089;SDS011;2059;48.538;12.146;2023-05-07T07:03:22;7.63;;;5.50;;
4089;SDS011;2059;48.538;12.146;2023-05-07T07:08:24;12.63;;;6.27;;
4089;SDS011;2059;48.538;12.146;2023-05-07T07:13:27;6.30;;;5.90;;
4089;SDS011;2059;48.538;12.146;2023-05-07T07:18:28;9.23;;;8.63;;
4089;SDS011;2059;48.538;12.146;2023-05-07T07:23:30;6.87;;;6.27;;
4089;SDS011;2059;48.538;12.146;2023-05-07T07:28:33;7.97;;;7.30;;
4089;SDS011;2059;48.538;12.146;2023-05-07T07:33:35;7.60;;;6.90;;
4089;SDS011;2059;48.538;12.146;2023-05-07T07:38:37;7.30;;;6.60;;
4089;SDS011;2059;48.538;12.146;2023-05-07T07:43:40;9.53;;;8.83;;
4089;SDS011;2059;48.538;12.146;2023-05-07T07:48:42;9.33;;;8.50;;
4089;SDS011;2059;48.538;12.146;2023-05-07T07:53:44;8.50;;;7.90;;
4089;SDS011;2059;48.538;12.146;2023-05-07T07:58:47;8.37;;;7.50;;
4089;SDS011;2059;48.538;12.146;2023-05-07T08:03:49;8.10;;;7.10;;
4089;SDS011;2059;48.538;12.146;2023-05-07T08:08:50;8.50;;;7.70;;
4089;SDS011;2059;48.538;12.146;2023-05-07T08:13:54;9.73;;;7.37;;
4089;SDS011;2059;48.538;12.146;2023-05-07T08:18:56;8.73;;;8.03;;
4089;SDS011;2059;48.538;12.146;2023-05-07T08:23:57;8.43;;;7.73;;
4089;SDS011;2059;48.538;12.146;2023-05-07T08:29:00;8.87;;;8.23;;
4089;SDS011;2059;48.538;12.146;2023-05-07T08:34:03;10.33;;;9.53;;
4089;SDS011;2059;48.538;12.146;2023-05-07T08:39:05;8.87;;;7.93;;
4089;SDS011;2059;48.538;12.146;2023-05-07T08:44:11;9.40;;;8.40;;
4089;SDS011;2059;48.538;12.146;2023-05-07T08:49:14;8.60;;;7.80;;
4089;SDS011;2059;48.538;12.146;2023-05-07T08:54:16;8.50;;;7.73;;
4089;SDS011;2059;48.538;12.146;2023-05-07T08:59:21;8.40;;;7.60;;
4089;SDS011;2059;48.538;12.146;2023-05-07T09:04:22;9.20;;;8.30;;
4089;SDS011;2059;48.538;12.146;2023-05-07T09:09:24;8.67;;;8.07;;
4089;SDS011;2059;48.538;12.146;2023-05-07T09:14:29;8.60;;;7.90;;
4089;SDS011;2059;48.538;12.146;2023-05-07T09:19:31;8.23;;;7.60;;
4089;SDS011;2059;48.538;12.146;2023-05-07T09:24:33;8.47;;;7.70;;
4089;SDS011;2059;48.538;12.146;2023-05-07T09:29:39;8.73;;;8.03;;
4089;SDS011;2059;48.538;12.146;2023-05-07T09:34:41;7.73;;;7.13;;
4089;SDS011;2059;48.538;12.146;2023-05-07T09:39:43;10.80;;;10.00;;
4089;SDS011;2059;48.538;12.146;2023-05-07T09:44:47;9.80;;;9.07;;
4089;SDS011;2059;48.538;12.146;2023-05-07T09:49:49;9.10;;;8.50;;
4089;SDS011;2059;48.538;12.146;2023-05-07T09:54:53;5.70;;;5.30;;
4089;SDS011;2059;48.538;12.146;2023-05-07T10:00:00;9.00;;;8.30;;
4089;SDS011;2059;48.538;12.146;2023-05-07T10:05:04;8.17;;;7.57;;
4089;SDS011;2059;48.538;12.146;2023-05-07T10:10:07;8.30;;;7.80;;
4089;SDS011;2059;48.538;12.146;2023-05-07T10:15:11;8.13;;;7.63;;
4089;SDS011;2059;48.538;12.146;2023-05-07T10:20:14;8.20;;;7.70;;
4089;SDS011;2059;48.538;12.146;2023-05-07T10:25:16;8.43;;;7.83;;
4089;SDS011;2059;48.538;12.146;2023-05-07T10:30:25;7.47;;;7.07;;
4089;SDS011;2059;48.538;12.146;2023-05-07T10:35:36;8.50;;;8.00;;
4089;SDS011;2059;48.538;12.146;2023-05-07T10:40:40;12.63;;;9.13;;
4089;SDS011;2059;48.538;12.146;2023-05-07T10:45:44;9.80;;;9.10;;
4089;SDS011;2059;48.538;12.146;2023-05-07T10:51:19;9.73;;;8.93;;
4089;SDS011;2059;48.538;12.146;2023-05-07T10:56:25;9.60;;;9.10;;
4089;SDS011;2059;48.538;12.146;2023-05-07T11:01:50;9.77;;;9.07;;
4089;SDS011;2059;48.538;12.146;2023-05-07T11:17:54;8.43;;;7.93;;
4089;SDS011;2059;48.538;12.146;2023-05-07T11:22:56;8.30;;;7.80;;
4089;SDS011;2059;48.538;12.146;2023-05-07T11:28:03;9.03;;;8.13;;
4089;SDS011;2059;48.538;12.146;2023-05-07T11:33:07;37.70;;;18.83;;
4089;SDS011;2059;48.538;12.146;2023-05-07T11:38:09;11.10;;;10.10;;
4089;SDS011;2059;48.538;12.146;2023-05-07T11:43:12;8.13;;;7.63;;
4089;SDS011;2059;48.538;12.146;2023-05-07T11:48:16;7.57;;;7.17;;
4089;SDS011;2059;48.538;12.146;2023-05-07T11:53:18;7.53;;;7.10;;
4089;SDS011;2059;48.538;12.146;2023-05-07T11:58:20;7.77;;;7.30;;
4089;SDS011;2059;48.538;12.146;2023-05-07T12:03:24;7.13;;;6.70;;
4089;SDS011;2059;48.538;12.146;2023-05-07T12:08:26;7.70;;;7.30;;
4089;SDS011;2059;48.538;12.146;2023-05-07T12:13:28;7.53;;;7.03;;
4089;SDS011;2059;48.538;12.146;2023-05-07T12:18:32;8.30;;;7.57;;
4089;SDS011;2059;48.538;12.146;2023-05-07T12:23:35;7.13;;;6.73;;
4089;SDS011;2059;48.538;12.146;2023-05-07T12:28:38;6.43;;;6.13;;
4089;SDS011;2059;48.538;12.146;2023-05-07T12:33:41;7.33;;;6.27;;
4089;SDS011;2059;48.538;12.146;2023-05-07T12:38:43;5.80;;;5.37;;
4089;SDS011;2059;48.538;12.146;2023-05-07T12:43:45;4.63;;;4.30;;
4089;SDS011;2059;48.538;12.146;2023-05-07T12:48:48;4.77;;;4.47;;
4089;SDS011;2059;48.538;12.146;2023-05-07T12:53:50;4.50;;;4.30;;
4089;SDS011;2059;48.538;12.146;2023-05-07T12:58:57;5.27;;;4.97;;
4089;SDS011;2059;48.538;12.146;2023-05-07T13:04:02;4.37;;;4.10;;
4089;SDS011;2059;48.538;12.146;2023-05-07T13:09:05;6.07;;;4.10;;
4089;SDS011;2059;48.538;12.146;2023-05-07T13:14:07;4.47;;;4.17;;
4089;SDS011;2059;48.538;12.146;2023-05-07T13:19:10;4.80;;;4.50;;
4089;SDS011;2059;48.538;12.146;2023-05-07T13:24:12;4.80;;;4.40;;
4089;SDS011;2059;48.538;12.146;2023-05-07T13:29:14;4.93;;;4.63;;
4089;SDS011;2059;48.538;12.146;2023-05-07T13:34:17;4.57;;;4.27;;
4089;SDS011;2059;48.538;12.146;2023-05-07T13:39:19;4.60;;;4.20;;
4089;SDS011;2059;48.538;12.146;2023-05-07T13:44:21;5.03;;;4.63;;
4089;SDS011;2059;48.538;12.146;2023-05-07T13:49:24;4.30;;;4.10;;
4089;SDS011;2059;48.538;12.146;2023-05-07T13:54:26;4.43;;;4.17;;
4089;SDS011;2059;48.538;12.146;2023-05-07T13:59:28;4.43;;;4.13;;
4089;SDS011;2059;48.538;12.146;2023-05-07T14:04:31;4.50;;;4.30;;
4089;SDS011;2059;48.538;12.146;2023-05-07T14:09:33;4.20;;;3.90;;
4089;SDS011;2059;48.538;12.146;2023-05-07T14:14:35;6.40;;;4.60;;
4089;SDS011;2059;48.538;12.146;2023-05-07T14:19:38;4.30;;;4.10;;
4089;SDS011;2059;48.538;12.146;2023-05-07T14:24:39;4.20;;;3.90;;
4089;SDS011;2059;48.538;12.146;2023-05-07T14:29:41;4.80;;;4.47;;
4089;SDS011;2059;48.538;12.146;2023-05-07T14:34:46;3.63;;;3.50;;
4089;SDS011;2059;48.538;12.146;2023-05-07T14:39:48;4.93;;;4.27;;
4089;SDS011;2059;48.538;12.146;2023-05-07T14:44:50;4.33;;;4.13;;
4089;SDS011;2059;48.538;12.146;2023-05-07T14:49:54;5.07;;;4.77;;
4089;SDS011;2059;48.538;12.146;2023-05-07T14:54:57;4.50;;;4.20;;
4089;SDS011;2059;48.538;12.146;2023-05-07T14:59:59;4.10;;;3.90;;
4089;SDS011;2059;48.538;12.146;2023-05-07T15:05:02;4.40;;;4.20;;
4089;SDS011;2059;48.538;12.146;2023-05-07T15:10:04;4.20;;;4.00;;
4089;SDS011;2059;48.538;12.146;2023-05-07T15:15:07;4.20;;;4.00;;
4089;SDS011;2059;48.538;12.146;2023-05-07T15:20:11;4.60;;;4.30;;
4089;SDS011;2059;48.538;12.146;2023-05-07T15:25:13;4.63;;;4.33;;
4089;SDS011;2059;48.538;12.146;2023-05-07T15:30:15;4.07;;;3.87;;
4089;SDS011;2059;48.538;12.146;2023-05-07T15:35:18;3.70;;;3.50;;
4089;SDS011;2059;48.538;12.146;2023-05-07T15:40:21;3.73;;;3.57;;
4089;SDS011;2059;48.538;12.146;2023-05-07T15:45:23;4.27;;;3.87;;
4089;SDS011;2059;48.538;12.146;2023-05-07T15:50:27;3.97;;;3.77;;
4089;SDS011;2059;48.538;12.146;2023-05-07T15:55:29;4.17;;;3.93;;
4089;SDS011;2059;48.538;12.146;2023-05-07T16:00:31;4.87;;;4.47;;
4089;SDS011;2059;48.538;12.146;2023-05-07T16:05:36;5.50;;;5.00;;
4089;SDS011;2059;48.538;12.146;2023-05-07T16:10:38;5.60;;;5.20;;
4089;SDS011;2059;48.538;12.146;2023-05-07T16:15:40;6.00;;;5.50;;
4089;SDS011;2059;48.538;12.146;2023-05-07T16:20:44;5.47;;;5.07;;
4089;SDS011;2059;48.538;12.146;2023-05-07T16:25:46;5.27;;;4.93;;
4089;SDS011;2059;48.538;12.146;2023-05-07T16:30:49;7.23;;;5.40;;
4089;SDS011;2059;48.538;12.146;2023-05-07T16:35:52;6.47;;;5.90;;
4089;SDS011;2059;48.538;12.146;2023-05-07T16:40:54;5.87;;;5.57;;
4089;SDS011;2059;48.538;12.146;2023-05-07T16:45:56;5.50;;;5.20;;
4089;SDS011;2059;48.538;12.146;2023-05-07T16:50:59;6.37;;;5.90;;
4089;SDS011;2059;48.538;12.146;2023-05-07T16:56:03;5.77;;;5.47;;
4089;SDS011;2059;48.538;12.146;2023-05-07T17:01:05;6.30;;;5.70;;
4089;SDS011;2059;48.538;12.146;2023-05-07T17:06:08;6.27;;;5.83;;
4089;SDS011;2059;48.538;12.146;2023-05-07T17:11:14;6.13;;;5.50;;
4089;SDS011;2059;48.538;12.146;2023-05-07T17:16:15;5.90;;;5.50;;
4089;SDS011;2059;48.538;12.146;2023-05-07T17:21:18;6.40;;;5.10;;
4089;SDS011;2059;48.538;12.146;2023-05-07T17:26:20;7.13;;;5.80;;
4089;SDS011;2059;48.538;12.146;2023-05-07T17:31:22;5.60;;;5.20;;
4089;SDS011;2059;48.538;12.146;2023-05-07T17:36:26;6.10;;;5.80;;
4089;SDS011;2059;48.538;12.146;2023-05-07T17:41:27;6.37;;;5.77;;
4089;SDS011;2059;48.538;12.146;2023-05-07T17:46:29;6.03;;;5.63;;
4089;SDS011;2059;48.538;12.146;2023-05-07T17:51:33;6.10;;;5.60;;
4089;SDS011;2059;48.538;12.146;2023-05-07T17:56:36;6.00;;;5.60;;
4089;SDS011;2059;48.538;12.146;2023-05-07T18:01:38;5.87;;;5.43;;
4089;SDS011;2059;48.538;12.146;2023-05-07T18:06:42;6.27;;;5.77;;
4089;SDS011;2059;48.538;12.146;2023-05-07T18:11:44;5.80;;;5.40;;
4089;SDS011;2059;48.538;12.146;2023-05-07T18:16:46;8.53;;;7.13;;
4089;SDS011;2059;48.538;12.146;2023-05-07T18:21:49;9.20;;;8.27;;
4089;SDS011;2059;48.538;12.146;2023-05-07T18:26:51;6.20;;;5.80;;
4089;SDS011;2059;48.538;12.146;2023-05-07T18:31:53;6.77;;;6.17;;
4089;SDS011;2059;48.538;12.146;2023-05-07T18:36:56;5.47;;;5.17;;
4089;SDS011;2059;48.538;12.146;2023-05-07T18:41:58;5.83;;;5.43;;
4089;SDS011;2059;48.538;12.146;2023-05-07T18:47:00;7.30;;;6.60;;
4089;SDS011;2059;48.538;12.146;2023-05-07T18:52:03;5.80;;;5.40;;
4089;SDS011;2059;48.538;12.146;2023-05-07T18:57:05;6.17;;;5.77;;
4089;SDS011;2059;48.538;12.146;2023-05-07T19:02:07;6.67;;;6.03;;
4089;SDS011;2059;48.538;12.146;2023-05-07T19:07:10;6.30;;;5.90;;
4089;SDS011;2059;48.538;12.146;2023-05-07T19:12:12;6.07;;;5.67;;
4089;SDS011;2059;48.538;12.146;2023-05-07T19:17:14;9.43;;;5.67;;
4089;SDS011;2059;48.538;12.146;2023-05-07T19:22:17;6.70;;;6.20;;
4089;SDS011;2059;48.538;12.146;2023-05-07T19:27:19;6.80;;;6.30;;
4089;SDS011;2059;48.538;12.146;2023-05-07T19:32:20;8.70;;;7.90;;
4089;SDS011;2059;48.538;12.146;2023-05-07T19:37:24;7.77;;;7.20;;
4089;SDS011;2059;48.538;12.146;2023-05-07T19:42:26;6.30;;;5.80;;
4089;SDS011;2059;48.538;12.146;2023-05-07T19:47:28;9.70;;;8.90;;
4089;SDS011;2059;48.538;12.146;2023-05-07T19:52:32;9.47;;;8.67;;
4089;SDS011;2059;48.538;12.146;2023-05-07T19:57:34;8.03;;;7.30;;
4089;SDS011;2059;48.538;12.146;2023-05-07T20:02:36;7.60;;;7.00;;
4089;SDS011;2059;48.538;12.146;2023-05-07T20:07:39;8.20;;;7.50;;
4089;SDS011;2059;48.538;12.146;2023-05-07T20:12:41;7.80;;;7.10;;
4089;SDS011;2059;48.538;12.146;2023-05-07T20:17:43;7.50;;;6.90;;
4089;SDS011;2059;48.538;12.146;2023-05-07T20:22:46;10.00;;;7.40;;
4089;SDS011;2059;48.538;12.146;2023-05-07T20:27:48;8.60;;;7.13;;
4089;SDS011;2059;48.538;12.146;2023-05-07T20:32:50;8.33;;;7.70;;
4089;SDS011;2059;48.538;12.146;2023-05-07T20:37:53;8.30;;;7.70;;
4089;SDS011;2059;48.538;12.146;2023-05-07T20:42:55;8.03;;;7.33;;
4089;SDS011;2059;48.538;12.146;2023-05-07T20:47:57;8.40;;;7.60;;
4089;SDS011;2059;48.538;12.146;2023-05-07T20:53:01;8.00;;;7.20;;
4089;SDS011;2059;48.538;12.146;2023-05-07T20:58:02;8.50;;;7.80;;
4089;SDS011;2059;48.538;12.146;2023-05-07T21:03:04;9.87;;;7.20;;
4089;SDS011;2059;48.538;12.146;2023-05-07T21:08:07;9.60;;;8.80;;
4089;SDS011;2059;48.538;12.146;2023-05-07T21:13:09;8.57;;;7.87;;
4089;SDS011;2059;48.538;12.146;2023-05-07T21:18:12;8.07;;;7.37;;
4089;SDS011;2059;48.538;12.146;2023-05-07T21:23:15;8.50;;;7.60;;
4089;SDS011;2059;48.538;12.146;2023-05-07T21:28:17;8.80;;;8.00;;
4089;SDS011;2059;48.538;12.146;2023-05-07T21:33:19;8.93;;;8.23;;
4089;SDS011;2059;48.538;12.146;2023-05-07T21:38:22;8.57;;;7.87;;
4089;SDS011;2059;48.538;12.146;2023-05-07T21:43:23;8.10;;;7.40;;
4089;SDS011;2059;48.538;12.146;2023-05-07T21:58:59;8.20;;;7.50;;
4089;SDS011;2059;48.538;12.146;2023-05-07T22:04:01;7.80;;;7.20;;
4089;SDS011;2059;48.538;12.146;2023-05-07T22:09:04;8.40;;;7.70;;
4089;SDS011;2059;48.538;12.146;2023-05-07T22:14:06;8.40;;;7.70;;
4089;SDS011;2059;48.538;12.146;2023-05-07T22:19:08;8.33;;;7.63;;
4089;SDS011;2059;48.538;12.146;2023-05-07T22:24:11;9.93;;;8.93;;
4089;SDS011;2059;48.538;12.146;2023-05-07T22:29:14;8.47;;;7.87;;
4089;SDS011;2059;48.538;12.146;2023-05-07T22:34:16;8.20;;;7.60;;
4089;SDS011;2059;48.538;12.146;2023-05-07T22:39:19;8.93;;;7.87;;
4089;SDS011;2059;48.538;12.146;2023-05-07T22:44:21;8.60;;;7.90;;
4089;SDS011;2059;48.538;12.146;2023-05-07T22:49:23;8.33;;;7.63;;
4089;SDS011;2059;48.538;12.146;2023-05-07T22:54:26;22.87;;;8.03;;
4089;SDS011;2059;48.538;12.146;2023-05-07T22:59:28;12.23;;;9.70;;
4089;SDS011;2059;48.538;12.146;2023-05-07T23:04:30;11.60;;;9.90;;
4089;SDS011;2059;48.538;12.146;2023-05-07T23:09:33;8.00;;;7.20;;
4089;SDS011;2059;48.538;12.146;2023-05-07T23:14:35;8.40;;;7.70;;
4089;SDS011;2059;48.538;12.146;2023-05-07T23:19:37;8.43;;;7.63;;
4089;SDS011;2059;48.538;12.146;2023-05-07T23:24:40;8.57;;;7.77;;
4089;SDS011;2059;48.538;12.146;2023-05-07T23:29:44;8.90;;;8.10;;
4089;SDS011;2059;48.538;12.146;2023-05-07T23:34:48;10.00;;;9.20;;
4089;SDS011;2059;48.538;12.146;2023-05-07T23:39:53;7.90;;;7.10;;
4089;SDS011;2059;48.538;12.146;2023-05-07T23:44:55;9.77;;;8.03;;
4089;SDS011;2059;48.538;12.146;2023-05-07T23:49:57;9.60;;;8.10;;
4089;SDS011;2059;48.538;12.146;2023-05-07T23:55:00;8.30;;;7.57;;
